Center, Colorado
Current Conditions -  °F | °C
As of 4:30 PM on Monday 22 Dec 2014 (Local Time) from KRCV Reporting Station
Broken Clouds Broken Clouds  
Wind Chill: 16°   Ceiling: 5000
Heat Index: 25°   Visibility: 10mi
Dew Point: 21°   Wind: 9mph
Humidity: 83%   Direction: 240°WSW
Pressure: 29.71"   Gusts: NA
Location:  37.75°N, 106.11°W
Report Text: KRCV 222330Z AUTO 24008KT 10SM SCT044 BKN050 BKN060 M04/M06 A2971 RMK AO2 T10381063
Loading
Personal Weather Stations






























Interactive Weather Map New forecast layout! Learn more

10-Day Weather Forecast

Advertisements
Track Severe Weather on mobile